sensor_id;sensor_type;location;lat;lon;timestamp;P1;durP1;ratioP1;P2;durP2;ratioP2
8536;SDS011;4306;50.210;10.628;2023-02-01T00:01:59;5.77;;;4.60;;
8536;SDS011;4306;50.210;10.628;2023-02-01T00:04:27;7.07;;;3.13;;
8536;SDS011;4306;50.210;10.628;2023-02-01T00:06:54;6.93;;;3.50;;
8536;SDS011;4306;50.210;10.628;2023-02-01T00:09:23;5.85;;;3.90;;
8536;SDS011;4306;50.210;10.628;2023-02-01T00:11:50;5.60;;;3.88;;
8536;SDS011;4306;50.210;10.628;2023-02-01T00:14:17;6.60;;;4.20;;
8536;SDS011;4306;50.210;10.628;2023-02-01T00:16:44;5.22;;;3.47;;
8536;SDS011;4306;50.210;10.628;2023-02-01T00:19:12;6.50;;;3.38;;
8536;SDS011;4306;50.210;10.628;2023-02-01T00:21:40;5.07;;;3.30;;
8536;SDS011;4306;50.210;10.628;2023-02-01T00:24:09;7.70;;;3.73;;
8536;SDS011;4306;50.210;10.628;2023-02-01T00:26:38;5.80;;;3.30;;
8536;SDS011;4306;50.210;10.628;2023-02-01T00:29:07;5.28;;;3.55;;
8536;SDS011;4306;50.210;10.628;2023-02-01T00:31:36;8.33;;;3.60;;
8536;SDS011;4306;50.210;10.628;2023-02-01T00:34:03;6.28;;;3.58;;
8536;SDS011;4306;50.210;10.628;2023-02-01T00:36:30;4.93;;;3.17;;
8536;SDS011;4306;50.210;10.628;2023-02-01T00:38:57;4.15;;;3.00;;
8536;SDS011;4306;50.210;10.628;2023-02-01T00:41:24;5.93;;;2.88;;
8536;SDS011;4306;50.210;10.628;2023-02-01T00:43:53;4.88;;;2.97;;
8536;SDS011;4306;50.210;10.628;2023-02-01T00:46:20;4.40;;;2.80;;
8536;SDS011;4306;50.210;10.628;2023-02-01T00:48:47;5.30;;;3.00;;
8536;SDS011;4306;50.210;10.628;2023-02-01T00:51:15;6.22;;;3.08;;
8536;SDS011;4306;50.210;10.628;2023-02-01T00:53:43;4.80;;;2.90;;
8536;SDS011;4306;50.210;10.628;2023-02-01T00:56:11;4.35;;;2.55;;
8536;SDS011;4306;50.210;10.628;2023-02-01T00:58:38;5.10;;;2.90;;
8536;SDS011;4306;50.210;10.628;2023-02-01T01:01:08;6.90;;;3.30;;
8536;SDS011;4306;50.210;10.628;2023-02-01T01:03:36;4.40;;;2.73;;
8536;SDS011;4306;50.210;10.628;2023-02-01T01:06:05;6.57;;;2.90;;
8536;SDS011;4306;50.210;10.628;2023-02-01T01:08:34;6.80;;;3.10;;
8536;SDS011;4306;50.210;10.628;2023-02-01T01:11:05;6.80;;;3.15;;
8536;SDS011;4306;50.210;10.628;2023-02-01T01:13:32;6.38;;;3.10;;
8536;SDS011;4306;50.210;10.628;2023-02-01T01:16:00;5.97;;;2.53;;
8536;SDS011;4306;50.210;10.628;2023-02-01T01:18:29;6.22;;;2.85;;
8536;SDS011;4306;50.210;10.628;2023-02-01T01:20:57;6.60;;;2.90;;
8536;SDS011;4306;50.210;10.628;2023-02-01T01:23:24;6.50;;;3.17;;
8536;SDS011;4306;50.210;10.628;2023-02-01T01:25:51;4.60;;;2.75;;
8536;SDS011;4306;50.210;10.628;2023-02-01T01:28:18;5.87;;;2.90;;
8536;SDS011;4306;50.210;10.628;2023-02-01T01:30:45;6.60;;;2.63;;
8536;SDS011;4306;50.210;10.628;2023-02-01T01:33:12;6.67;;;2.97;;
8536;SDS011;4306;50.210;10.628;2023-02-01T01:35:40;5.00;;;2.25;;
8536;SDS011;4306;50.210;10.628;2023-02-01T01:38:08;2.97;;;1.70;;
8536;SDS011;4306;50.210;10.628;2023-02-01T01:40:36;5.82;;;1.85;;
8536;SDS011;4306;50.210;10.628;2023-02-01T01:43:05;5.80;;;2.07;;
8536;SDS011;4306;50.210;10.628;2023-02-01T01:45:39;5.30;;;2.10;;
8536;SDS011;4306;50.210;10.628;2023-02-01T01:48:07;5.18;;;2.35;;
8536;SDS011;4306;50.210;10.628;2023-02-01T01:50:42;4.18;;;2.05;;
8536;SDS011;4306;50.210;10.628;2023-02-01T01:53:16;3.47;;;2.10;;
8536;SDS011;4306;50.210;10.628;2023-02-01T01:55:46;5.60;;;2.20;;
8536;SDS011;4306;50.210;10.628;2023-02-01T01:58:15;6.35;;;2.22;;
8536;SDS011;4306;50.210;10.628;2023-02-01T02:00:45;6.93;;;2.23;;
8536;SDS011;4306;50.210;10.628;2023-02-01T02:03:13;6.60;;;2.28;;
8536;SDS011;4306;50.210;10.628;2023-02-01T02:05:45;5.65;;;2.65;;
8536;SDS011;4306;50.210;10.628;2023-02-01T02:08:14;4.03;;;2.13;;
8536;SDS011;4306;50.210;10.628;2023-02-01T02:10:41;5.22;;;2.45;;
8536;SDS011;4306;50.210;10.628;2023-02-01T02:13:27;7.53;;;2.60;;
8536;SDS011;4306;50.210;10.628;2023-02-01T02:16:01;4.70;;;2.28;;
8536;SDS011;4306;50.210;10.628;2023-02-01T02:18:37;5.80;;;2.40;;
8536;SDS011;4306;50.210;10.628;2023-02-01T02:21:12;5.78;;;2.75;;
8536;SDS011;4306;50.210;10.628;2023-02-01T02:23:54;8.68;;;2.63;;
8536;SDS011;4306;50.210;10.628;2023-02-01T02:26:43;5.20;;;2.90;;
8536;SDS011;4306;50.210;10.628;2023-02-01T02:35:41;5.13;;;2.60;;
8536;SDS011;4306;50.210;10.628;2023-02-01T02:38:15;5.75;;;2.92;;
8536;SDS011;4306;50.210;10.628;2023-02-01T02:40:51;6.20;;;3.17;;
8536;SDS011;4306;50.210;10.628;2023-02-01T02:43:31;4.80;;;2.83;;
8536;SDS011;4306;50.210;10.628;2023-02-01T02:46:21;4.80;;;3.20;;
8536;SDS011;4306;50.210;10.628;2023-02-01T02:49:09;4.93;;;3.40;;
8536;SDS011;4306;50.210;10.628;2023-02-01T02:51:43;6.03;;;3.20;;
8536;SDS011;4306;50.210;10.628;2023-02-01T02:54:32;7.87;;;3.40;;
8536;SDS011;4306;50.210;10.628;2023-02-01T02:57:17;8.68;;;3.55;;
8536;SDS011;4306;50.210;10.628;2023-02-01T03:00:06;6.85;;;3.75;;
8536;SDS011;4306;50.210;10.628;2023-02-01T03:02:53;7.20;;;3.27;;
8536;SDS011;4306;50.210;10.628;2023-02-01T03:05:40;5.90;;;3.97;;
8536;SDS011;4306;50.210;10.628;2023-02-01T03:08:13;9.40;;;4.25;;
8536;SDS011;4306;50.210;10.628;2023-02-01T03:10:44;7.40;;;4.03;;
8536;SDS011;4306;50.210;10.628;2023-02-01T03:13:19;8.93;;;4.45;;
8536;SDS011;4306;50.210;10.628;2023-02-01T03:15:57;8.57;;;3.95;;
8536;SDS011;4306;50.210;10.628;2023-02-01T03:18:32;6.97;;;4.68;;
8536;SDS011;4306;50.210;10.628;2023-02-01T03:21:04;10.77;;;4.63;;
8536;SDS011;4306;50.210;10.628;2023-02-01T03:23:37;10.93;;;4.53;;
8536;SDS011;4306;50.210;10.628;2023-02-01T03:26:04;9.32;;;4.78;;
8536;SDS011;4306;50.210;10.628;2023-02-01T03:28:35;9.25;;;5.07;;
8536;SDS011;4306;50.210;10.628;2023-02-01T03:31:05;7.60;;;5.03;;
8536;SDS011;4306;50.210;10.628;2023-02-01T03:33:32;8.23;;;4.60;;
8536;SDS011;4306;50.210;10.628;2023-02-01T03:36:02;8.52;;;5.15;;
8536;SDS011;4306;50.210;10.628;2023-02-01T03:38:37;8.75;;;4.85;;
8536;SDS011;4306;50.210;10.628;2023-02-01T03:41:09;8.97;;;5.17;;
8536;SDS011;4306;50.210;10.628;2023-02-01T03:43:43;7.93;;;4.73;;
8536;SDS011;4306;50.210;10.628;2023-02-01T03:46:18;11.32;;;4.95;;
8536;SDS011;4306;50.210;10.628;2023-02-01T03:48:50;8.82;;;5.30;;
8536;SDS011;4306;50.210;10.628;2023-02-01T03:51:19;6.75;;;4.82;;
8536;SDS011;4306;50.210;10.628;2023-02-01T03:53:49;8.70;;;5.10;;
8536;SDS011;4306;50.210;10.628;2023-02-01T03:56:18;8.90;;;5.28;;
8536;SDS011;4306;50.210;10.628;2023-02-01T03:58:47;10.65;;;5.53;;
8536;SDS011;4306;50.210;10.628;2023-02-01T04:01:24;9.38;;;5.25;;
8536;SDS011;4306;50.210;10.628;2023-02-01T04:03:51;7.43;;;4.27;;
8536;SDS011;4306;50.210;10.628;2023-02-01T04:06:18;6.47;;;4.03;;
8536;SDS011;4306;50.210;10.628;2023-02-01T04:08:45;10.37;;;4.97;;
8536;SDS011;4306;50.210;10.628;2023-02-01T04:11:13;7.35;;;4.65;;
8536;SDS011;4306;50.210;10.628;2023-02-01T04:13:40;8.77;;;5.10;;
8536;SDS011;4306;50.210;10.628;2023-02-01T04:16:07;6.43;;;4.18;;
8536;SDS011;4306;50.210;10.628;2023-02-01T04:18:34;6.38;;;4.70;;
8536;SDS011;4306;50.210;10.628;2023-02-01T04:21:01;9.85;;;5.25;;
8536;SDS011;4306;50.210;10.628;2023-02-01T04:23:29;8.57;;;4.80;;
8536;SDS011;4306;50.210;10.628;2023-02-01T04:25:58;7.20;;;4.57;;
8536;SDS011;4306;50.210;10.628;2023-02-01T04:28:27;11.85;;;4.25;;
8536;SDS011;4306;50.210;10.628;2023-02-01T04:30:55;7.55;;;4.45;;
8536;SDS011;4306;50.210;10.628;2023-02-01T04:33:22;7.28;;;4.18;;
8536;SDS011;4306;50.210;10.628;2023-02-01T04:35:49;10.23;;;4.37;;
8536;SDS011;4306;50.210;10.628;2023-02-01T04:38:16;8.50;;;4.43;;
8536;SDS011;4306;50.210;10.628;2023-02-01T04:40:43;7.97;;;4.57;;
8536;SDS011;4306;50.210;10.628;2023-02-01T04:43:12;7.80;;;3.97;;
8536;SDS011;4306;50.210;10.628;2023-02-01T04:45:40;10.80;;;5.40;;
8536;SDS011;4306;50.210;10.628;2023-02-01T04:48:07;10.65;;;4.70;;
8536;SDS011;4306;50.210;10.628;2023-02-01T04:50:34;6.20;;;4.13;;
8536;SDS011;4306;50.210;10.628;2023-02-01T04:53:01;11.07;;;4.90;;
8536;SDS011;4306;50.210;10.628;2023-02-01T04:55:28;6.63;;;4.00;;
8536;SDS011;4306;50.210;10.628;2023-02-01T04:57:55;8.50;;;4.32;;
8536;SDS011;4306;50.210;10.628;2023-02-01T05:00:22;9.65;;;4.55;;
8536;SDS011;4306;50.210;10.628;2023-02-01T05:02:51;7.05;;;4.90;;
8536;SDS011;4306;50.210;10.628;2023-02-01T05:05:18;5.57;;;3.90;;
8536;SDS011;4306;50.210;10.628;2023-02-01T05:07:45;8.77;;;3.93;;
8536;SDS011;4306;50.210;10.628;2023-02-01T05:10:12;8.38;;;4.65;;
8536;SDS011;4306;50.210;10.628;2023-02-01T05:12:39;9.82;;;4.03;;
8536;SDS011;4306;50.210;10.628;2023-02-01T05:15:23;9.45;;;4.10;;
8536;SDS011;4306;50.210;10.628;2023-02-01T05:17:51;8.17;;;4.07;;
8536;SDS011;4306;50.210;10.628;2023-02-01T05:20:18;7.53;;;4.35;;
8536;SDS011;4306;50.210;10.628;2023-02-01T05:22:45;13.13;;;4.20;;
8536;SDS011;4306;50.210;10.628;2023-02-01T05:25:12;8.63;;;4.10;;
8536;SDS011;4306;50.210;10.628;2023-02-01T05:27:38;8.95;;;4.40;;
8536;SDS011;4306;50.210;10.628;2023-02-01T05:30:06;10.07;;;4.17;;
8536;SDS011;4306;50.210;10.628;2023-02-01T05:32:34;9.20;;;4.22;;
8536;SDS011;4306;50.210;10.628;2023-02-01T05:35:02;11.53;;;4.17;;
8536;SDS011;4306;50.210;10.628;2023-02-01T05:37:29;9.52;;;5.05;;
8536;SDS011;4306;50.210;10.628;2023-02-01T05:39:56;12.77;;;4.75;;
8536;SDS011;4306;50.210;10.628;2023-02-01T05:42:22;12.83;;;4.00;;
8536;SDS011;4306;50.210;10.628;2023-02-01T05:44:49;10.50;;;4.30;;
8536;SDS011;4306;50.210;10.628;2023-02-01T05:47:16;7.73;;;3.70;;
8536;SDS011;4306;50.210;10.628;2023-02-01T05:49:43;10.23;;;4.25;;
8536;SDS011;4306;50.210;10.628;2023-02-01T05:52:11;7.77;;;3.97;;
8536;SDS011;4306;50.210;10.628;2023-02-01T05:54:38;8.55;;;3.92;;
8536;SDS011;4306;50.210;10.628;2023-02-01T05:57:05;8.82;;;3.80;;
8536;SDS011;4306;50.210;10.628;2023-02-01T05:59:32;11.07;;;4.03;;
8536;SDS011;4306;50.210;10.628;2023-02-01T06:01:59;11.55;;;4.43;;
8536;SDS011;4306;50.210;10.628;2023-02-01T06:04:26;8.43;;;3.70;;
8536;SDS011;4306;50.210;10.628;2023-02-01T06:06:52;8.43;;;3.35;;
8536;SDS011;4306;50.210;10.628;2023-02-01T06:09:21;8.00;;;3.55;;
8536;SDS011;4306;50.210;10.628;2023-02-01T06:11:47;10.35;;;3.40;;
8536;SDS011;4306;50.210;10.628;2023-02-01T06:14:14;9.20;;;4.30;;
8536;SDS011;4306;50.210;10.628;2023-02-01T06:16:41;12.37;;;3.33;;
8536;SDS011;4306;50.210;10.628;2023-02-01T06:19:10;10.02;;;3.17;;
8536;SDS011;4306;50.210;10.628;2023-02-01T06:21:37;9.20;;;3.00;;
8536;SDS011;4306;50.210;10.628;2023-02-01T06:24:04;11.63;;;3.28;;
8536;SDS011;4306;50.210;10.628;2023-02-01T06:26:33;9.93;;;3.30;;
8536;SDS011;4306;50.210;10.628;2023-02-01T06:29:01;8.60;;;2.72;;
8536;SDS011;4306;50.210;10.628;2023-02-01T06:31:27;6.30;;;2.73;;
8536;SDS011;4306;50.210;10.628;2023-02-01T06:33:54;6.75;;;2.65;;
8536;SDS011;4306;50.210;10.628;2023-02-01T06:36:21;7.70;;;3.15;;
8536;SDS011;4306;50.210;10.628;2023-02-01T06:38:48;8.13;;;3.10;;
8536;SDS011;4306;50.210;10.628;2023-02-01T06:41:15;10.25;;;3.08;;
8536;SDS011;4306;50.210;10.628;2023-02-01T06:43:43;10.80;;;3.07;;
8536;SDS011;4306;50.210;10.628;2023-02-01T06:46:11;10.00;;;3.08;;
8536;SDS011;4306;50.210;10.628;2023-02-01T06:48:39;9.48;;;3.40;;
8536;SDS011;4306;50.210;10.628;2023-02-01T06:51:06;9.02;;;2.85;;
8536;SDS011;4306;50.210;10.628;2023-02-01T06:53:44;10.45;;;3.08;;
8536;SDS011;4306;50.210;10.628;2023-02-01T06:56:10;6.43;;;2.70;;
8536;SDS011;4306;50.210;10.628;2023-02-01T06:58:37;8.38;;;3.03;;
8536;SDS011;4306;50.210;10.628;2023-02-01T07:01:06;11.63;;;3.20;;
8536;SDS011;4306;50.210;10.628;2023-02-01T07:03:34;8.37;;;2.87;;
8536;SDS011;4306;50.210;10.628;2023-02-01T07:06:01;8.77;;;3.08;;
8536;SDS011;4306;50.210;10.628;2023-02-01T07:08:29;10.60;;;3.20;;
8536;SDS011;4306;50.210;10.628;2023-02-01T07:11:00;7.90;;;2.92;;
8536;SDS011;4306;50.210;10.628;2023-02-01T07:13:28;9.25;;;3.15;;
8536;SDS011;4306;50.210;10.628;2023-02-01T07:15:57;9.43;;;3.27;;
8536;SDS011;4306;50.210;10.628;2023-02-01T07:18:26;6.82;;;3.03;;
8536;SDS011;4306;50.210;10.628;2023-02-01T07:20:53;11.40;;;3.23;;
8536;SDS011;4306;50.210;10.628;2023-02-01T07:23:20;8.15;;;2.95;;
8536;SDS011;4306;50.210;10.628;2023-02-01T07:25:47;7.57;;;3.20;;
8536;SDS011;4306;50.210;10.628;2023-02-01T07:28:14;6.97;;;3.05;;
8536;SDS011;4306;50.210;10.628;2023-02-01T07:30:41;5.50;;;3.15;;
8536;SDS011;4306;50.210;10.628;2023-02-01T07:33:08;6.93;;;2.60;;
8536;SDS011;4306;50.210;10.628;2023-02-01T07:35:36;9.43;;;2.93;;
8536;SDS011;4306;50.210;10.628;2023-02-01T07:38:03;6.82;;;3.58;;
8536;SDS011;4306;50.210;10.628;2023-02-01T07:40:30;7.72;;;3.20;;
8536;SDS011;4306;50.210;10.628;2023-02-01T07:42:57;10.23;;;3.50;;
8536;SDS011;4306;50.210;10.628;2023-02-01T07:45:24;6.85;;;3.13;;
8536;SDS011;4306;50.210;10.628;2023-02-01T07:47:52;9.07;;;5.38;;
8536;SDS011;4306;50.210;10.628;2023-02-01T07:50:19;10.77;;;3.20;;
8536;SDS011;4306;50.210;10.628;2023-02-01T07:52:47;11.30;;;2.83;;
8536;SDS011;4306;50.210;10.628;2023-02-01T07:55:14;7.55;;;2.65;;
8536;SDS011;4306;50.210;10.628;2023-02-01T07:57:41;7.38;;;2.65;;
8536;SDS011;4306;50.210;10.628;2023-02-01T08:00:08;7.43;;;3.07;;
8536;SDS011;4306;50.210;10.628;2023-02-01T08:02:53;10.35;;;4.03;;
8536;SDS011;4306;50.210;10.628;2023-02-01T08:05:20;10.98;;;3.60;;
8536;SDS011;4306;50.210;10.628;2023-02-01T08:07:49;8.00;;;3.40;;
8536;SDS011;4306;50.210;10.628;2023-02-01T08:10:16;9.73;;;3.13;;
8536;SDS011;4306;50.210;10.628;2023-02-01T08:12:43;10.07;;;3.15;;
8536;SDS011;4306;50.210;10.628;2023-02-01T08:15:12;12.75;;;3.38;;
8536;SDS011;4306;50.210;10.628;2023-02-01T08:17:40;10.23;;;2.45;;
8536;SDS011;4306;50.210;10.628;2023-02-01T08:20:12;11.13;;;2.93;;
8536;SDS011;4306;50.210;10.628;2023-02-01T08:22:39;8.25;;;2.80;;
8536;SDS011;4306;50.210;10.628;2023-02-01T08:25:08;10.93;;;2.80;;
8536;SDS011;4306;50.210;10.628;2023-02-01T08:27:35;6.95;;;2.45;;
8536;SDS011;4306;50.210;10.628;2023-02-01T08:30:03;8.38;;;2.63;;
8536;SDS011;4306;50.210;10.628;2023-02-01T08:32:32;10.90;;;2.38;;
8536;SDS011;4306;50.210;10.628;2023-02-01T08:34:59;11.43;;;2.35;;
8536;SDS011;4306;50.210;10.628;2023-02-01T08:37:26;7.85;;;3.00;;
8536;SDS011;4306;50.210;10.628;2023-02-01T08:39:53;8.32;;;2.47;;
8536;SDS011;4306;50.210;10.628;2023-02-01T08:42:21;4.78;;;2.65;;
8536;SDS011;4306;50.210;10.628;2023-02-01T08:45:06;7.47;;;2.13;;
8536;SDS011;4306;50.210;10.628;2023-02-01T08:47:33;6.43;;;1.88;;
8536;SDS011;4306;50.210;10.628;2023-02-01T08:50:01;11.40;;;3.03;;
8536;SDS011;4306;50.210;10.628;2023-02-01T08:52:28;9.17;;;2.20;;
8536;SDS011;4306;50.210;10.628;2023-02-01T08:54:55;7.13;;;1.77;;
8536;SDS011;4306;50.210;10.628;2023-02-01T08:57:23;6.60;;;2.10;;
8536;SDS011;4306;50.210;10.628;2023-02-01T08:59:50;8.95;;;2.92;;
8536;SDS011;4306;50.210;10.628;2023-02-01T09:02:17;5.15;;;1.90;;
8536;SDS011;4306;50.210;10.628;2023-02-01T09:04:44;6.82;;;2.45;;
8536;SDS011;4306;50.210;10.628;2023-02-01T09:07:11;12.15;;;2.28;;
8536;SDS011;4306;50.210;10.628;2023-02-01T09:09:38;9.80;;;2.17;;
8536;SDS011;4306;50.210;10.628;2023-02-01T09:12:05;10.88;;;3.40;;
8536;SDS011;4306;50.210;10.628;2023-02-01T09:14:33;8.20;;;3.20;;
8536;SDS011;4306;50.210;10.628;2023-02-01T09:17:00;10.85;;;3.15;;
8536;SDS011;4306;50.210;10.628;2023-02-01T09:19:27;8.82;;;2.60;;
8536;SDS011;4306;50.210;10.628;2023-02-01T09:21:54;9.52;;;2.47;;
8536;SDS011;4306;50.210;10.628;2023-02-01T09:24:21;9.93;;;1.92;;
8536;SDS011;4306;50.210;10.628;2023-02-01T09:26:48;7.13;;;2.00;;
8536;SDS011;4306;50.210;10.628;2023-02-01T09:29:15;8.52;;;2.08;;
8536;SDS011;4306;50.210;10.628;2023-02-01T09:31:43;9.50;;;2.00;;
8536;SDS011;4306;50.210;10.628;2023-02-01T09:34:10;10.80;;;2.53;;
8536;SDS011;4306;50.210;10.628;2023-02-01T09:36:37;6.18;;;2.08;;
8536;SDS011;4306;50.210;10.628;2023-02-01T09:39:04;6.10;;;2.15;;
8536;SDS011;4306;50.210;10.628;2023-02-01T09:41:34;6.20;;;2.30;;
8536;SDS011;4306;50.210;10.628;2023-02-01T09:44:08;11.48;;;2.38;;
8536;SDS011;4306;50.210;10.628;2023-02-01T09:46:44;8.07;;;2.33;;
8536;SDS011;4306;50.210;10.628;2023-02-01T09:49:12;9.52;;;2.22;;
8536;SDS011;4306;50.210;10.628;2023-02-01T09:51:42;11.27;;;2.78;;
8536;SDS011;4306;50.210;10.628;2023-02-01T09:54:13;8.35;;;2.15;;
8536;SDS011;4306;50.210;10.628;2023-02-01T09:56:44;11.57;;;2.35;;
8536;SDS011;4306;50.210;10.628;2023-02-01T09:59:20;9.32;;;2.53;;
8536;SDS011;4306;50.210;10.628;2023-02-01T10:01:59;10.27;;;2.40;;
8536;SDS011;4306;50.210;10.628;2023-02-01T10:04:29;8.52;;;2.83;;
8536;SDS011;4306;50.210;10.628;2023-02-01T10:07:01;13.30;;;3.58;;
8536;SDS011;4306;50.210;10.628;2023-02-01T10:09:44;9.87;;;2.93;;
8536;SDS011;4306;50.210;10.628;2023-02-01T10:15:19;7.50;;;2.53;;
8536;SDS011;4306;50.210;10.628;2023-02-01T10:18:09;10.05;;;2.95;;
8536;SDS011;4306;50.210;10.628;2023-02-01T10:20:50;8.57;;;2.40;;
8536;SDS011;4306;50.210;10.628;2023-02-01T10:23:34;8.05;;;2.22;;
8536;SDS011;4306;50.210;10.628;2023-02-01T10:26:17;6.05;;;1.95;;
8536;SDS011;4306;50.210;10.628;2023-02-01T10:28:46;8.82;;;2.67;;
8536;SDS011;4306;50.210;10.628;2023-02-01T10:31:16;8.63;;;2.40;;
8536;SDS011;4306;50.210;10.628;2023-02-01T10:33:46;6.75;;;2.83;;
8536;SDS011;4306;50.210;10.628;2023-02-01T10:36:16;8.45;;;2.95;;
8536;SDS011;4306;50.210;10.628;2023-02-01T10:38:47;12.77;;;4.75;;
8536;SDS011;4306;50.210;10.628;2023-02-01T10:41:15;7.97;;;3.20;;
8536;SDS011;4306;50.210;10.628;2023-02-01T10:43:44;11.13;;;3.30;;
8536;SDS011;4306;50.210;10.628;2023-02-01T10:46:16;10.75;;;3.38;;
8536;SDS011;4306;50.210;10.628;2023-02-01T10:48:43;9.50;;;2.50;;
8536;SDS011;4306;50.210;10.628;2023-02-01T10:51:13;6.25;;;2.90;;
8536;SDS011;4306;50.210;10.628;2023-02-01T10:53:46;8.68;;;3.17;;
8536;SDS011;4306;50.210;10.628;2023-02-01T10:56:21;9.37;;;2.50;;
8536;SDS011;4306;50.210;10.628;2023-02-01T10:58:49;12.80;;;3.03;;
8536;SDS011;4306;50.210;10.628;2023-02-01T11:01:17;8.30;;;2.38;;
8536;SDS011;4306;50.210;10.628;2023-02-01T11:03:51;11.82;;;4.30;;
8536;SDS011;4306;50.210;10.628;2023-02-01T11:06:24;9.48;;;2.75;;
8536;SDS011;4306;50.210;10.628;2023-02-01T11:08:54;7.05;;;3.40;;
8536;SDS011;4306;50.210;10.628;2023-02-01T11:11:23;5.80;;;2.15;;
8536;SDS011;4306;50.210;10.628;2023-02-01T11:13:51;8.65;;;4.07;;
8536;SDS011;4306;50.210;10.628;2023-02-01T11:16:20;8.65;;;2.60;;
8536;SDS011;4306;50.210;10.628;2023-02-01T11:18:47;7.65;;;2.20;;
8536;SDS011;4306;50.210;10.628;2023-02-01T11:21:19;10.82;;;2.90;;
8536;SDS011;4306;50.210;10.628;2023-02-01T11:23:48;9.13;;;2.25;;
8536;SDS011;4306;50.210;10.628;2023-02-01T11:26:19;14.15;;;2.92;;
8536;SDS011;4306;50.210;10.628;2023-02-01T11:28:50;8.45;;;2.50;;
8536;SDS011;4306;50.210;10.628;2023-02-01T11:31:20;9.52;;;3.15;;
8536;SDS011;4306;50.210;10.628;2023-02-01T11:33:50;11.18;;;4.30;;
8536;SDS011;4306;50.210;10.628;2023-02-01T11:36:20;9.52;;;2.40;;
8536;SDS011;4306;50.210;10.628;2023-02-01T11:38:53;13.75;;;3.70;;
8536;SDS011;4306;50.210;10.628;2023-02-01T11:41:34;10.07;;;4.25;;
8536;SDS011;4306;50.210;10.628;2023-02-01T11:44:15;7.97;;;3.13;;
8536;SDS011;4306;50.210;10.628;2023-02-01T11:46:48;10.98;;;3.80;;
8536;SDS011;4306;50.210;10.628;2023-02-01T11:49:19;8.68;;;2.65;;
8536;SDS011;4306;50.210;10.628;2023-02-01T11:52:00;8.48;;;2.97;;
8536;SDS011;4306;50.210;10.628;2023-02-01T11:54:44;9.52;;;3.20;;
8536;SDS011;4306;50.210;10.628;2023-02-01T11:57:35;10.93;;;3.75;;
8536;SDS011;4306;50.210;10.628;2023-02-01T12:00:23;8.18;;;3.33;;
8536;SDS011;4306;50.210;10.628;2023-02-01T12:03:08;10.63;;;3.20;;
8536;SDS011;4306;50.210;10.628;2023-02-01T12:05:53;11.48;;;3.10;;
8536;SDS011;4306;50.210;10.628;2023-02-01T12:08:29;11.00;;;3.42;;
8536;SDS011;4306;50.210;10.628;2023-02-01T12:11:29;11.20;;;3.70;;
8536;SDS011;4306;50.210;10.628;2023-02-01T12:14:08;9.07;;;2.83;;
8536;SDS011;4306;50.210;10.628;2023-02-01T12:17:13;6.72;;;2.65;;
8536;SDS011;4306;50.210;10.628;2023-02-01T12:19:58;10.50;;;2.53;;
8536;SDS011;4306;50.210;10.628;2023-02-01T12:22:38;9.70;;;2.72;;
8536;SDS011;4306;50.210;10.628;2023-02-01T12:25:24;8.38;;;2.95;;
8536;SDS011;4306;50.210;10.628;2023-02-01T12:28:22;10.90;;;2.77;;
8536;SDS011;4306;50.210;10.628;2023-02-01T12:31:27;9.75;;;3.55;;
8536;SDS011;4306;50.210;10.628;2023-02-01T12:34:10;8.57;;;3.50;;
8536;SDS011;4306;50.210;10.628;2023-02-01T12:36:53;7.88;;;2.55;;
8536;SDS011;4306;50.210;10.628;2023-02-01T12:39:28;9.23;;;3.53;;
8536;SDS011;4306;50.210;10.628;2023-02-01T12:42:00;9.65;;;2.88;;
8536;SDS011;4306;50.210;10.628;2023-02-01T12:44:39;7.03;;;2.53;;
8536;SDS011;4306;50.210;10.628;2023-02-01T12:47:12;9.40;;;2.83;;
8536;SDS011;4306;50.210;10.628;2023-02-01T12:49:46;12.40;;;3.72;;
8536;SDS011;4306;50.210;10.628;2023-02-01T12:52:18;9.00;;;2.80;;
8536;SDS011;4306;50.210;10.628;2023-02-01T12:54:50;11.50;;;3.55;;
8536;SDS011;4306;50.210;10.628;2023-02-01T12:57:25;13.73;;;5.00;;
8536;SDS011;4306;50.210;10.628;2023-02-01T12:59:59;11.00;;;3.53;;
8536;SDS011;4306;50.210;10.628;2023-02-01T13:02:33;11.20;;;3.03;;
8536;SDS011;4306;50.210;10.628;2023-02-01T13:05:11;8.80;;;3.38;;
8536;SDS011;4306;50.210;10.628;2023-02-01T13:07:43;7.97;;;2.83;;
8536;SDS011;4306;50.210;10.628;2023-02-01T13:10:16;10.18;;;2.90;;
8536;SDS011;4306;50.210;10.628;2023-02-01T13:12:48;10.82;;;2.97;;
8536;SDS011;4306;50.210;10.628;2023-02-01T13:15:23;9.35;;;2.72;;
8536;SDS011;4306;50.210;10.628;2023-02-01T13:17:54;12.50;;;3.33;;
8536;SDS011;4306;50.210;10.628;2023-02-01T13:20:26;11.50;;;3.35;;
8536;SDS011;4306;50.210;10.628;2023-02-01T13:22:59;11.90;;;3.70;;
8536;SDS011;4306;50.210;10.628;2023-02-01T13:25:29;11.15;;;2.67;;
8536;SDS011;4306;50.210;10.628;2023-02-01T13:28:02;8.20;;;1.83;;
8536;SDS011;4306;50.210;10.628;2023-02-01T13:30:37;7.32;;;2.25;;
8536;SDS011;4306;50.210;10.628;2023-02-01T13:33:17;9.43;;;3.38;;
8536;SDS011;4306;50.210;10.628;2023-02-01T13:36:01;11.20;;;4.22;;
8536;SDS011;4306;50.210;10.628;2023-02-01T13:38:45;6.82;;;2.30;;
8536;SDS011;4306;50.210;10.628;2023-02-01T13:41:51;6.00;;;2.13;;
8536;SDS011;4306;50.210;10.628;2023-02-01T13:44:22;9.45;;;2.25;;
8536;SDS011;4306;50.210;10.628;2023-02-01T13:46:56;6.70;;;1.93;;
8536;SDS011;4306;50.210;10.628;2023-02-01T13:49:26;8.87;;;2.73;;
8536;SDS011;4306;50.210;10.628;2023-02-01T13:51:55;7.35;;;1.80;;
8536;SDS011;4306;50.210;10.628;2023-02-01T13:54:24;13.70;;;2.45;;
8536;SDS011;4306;50.210;10.628;2023-02-01T13:56:53;9.80;;;2.83;;
8536;SDS011;4306;50.210;10.628;2023-02-01T14:08:41;7.93;;;2.30;;
8536;SDS011;4306;50.210;10.628;2023-02-01T14:23:26;11.82;;;2.95;;
8536;SDS011;4306;50.210;10.628;2023-02-01T14:26:04;9.75;;;2.00;;
8536;SDS011;4306;50.210;10.628;2023-02-01T14:28:37;7.43;;;1.90;;
8536;SDS011;4306;50.210;10.628;2023-02-01T14:34:02;6.72;;;2.38;;
8536;SDS011;4306;50.210;10.628;2023-02-01T14:36:41;8.32;;;2.05;;
8536;SDS011;4306;50.210;10.628;2023-02-01T14:39:22;5.72;;;2.10;;
8536;SDS011;4306;50.210;10.628;2023-02-01T14:41:54;8.35;;;2.33;;
8536;SDS011;4306;50.210;10.628;2023-02-01T14:44:29;7.85;;;2.60;;
8536;SDS011;4306;50.210;10.628;2023-02-01T14:49:58;9.00;;;1.90;;
8536;SDS011;4306;50.210;10.628;2023-02-01T14:52:37;7.75;;;1.88;;
8536;SDS011;4306;50.210;10.628;2023-02-01T14:55:10;5.82;;;1.65;;
8536;SDS011;4306;50.210;10.628;2023-02-01T14:57:41;8.65;;;2.25;;
8536;SDS011;4306;50.210;10.628;2023-02-01T15:00:17;7.07;;;1.70;;
8536;SDS011;4306;50.210;10.628;2023-02-01T15:02:47;12.93;;;2.75;;
8536;SDS011;4306;50.210;10.628;2023-02-01T15:05:31;12.17;;;2.43;;
8536;SDS011;4306;50.210;10.628;2023-02-01T15:08:06;6.47;;;2.55;;
8536;SDS011;4306;50.210;10.628;2023-02-01T15:10:43;11.13;;;4.63;;
8536;SDS011;4306;50.210;10.628;2023-02-01T15:13:17;16.80;;;6.40;;
8536;SDS011;4306;50.210;10.628;2023-02-01T15:15:59;9.43;;;2.60;;
8536;SDS011;4306;50.210;10.628;2023-02-01T15:18:30;11.93;;;2.33;;
8536;SDS011;4306;50.210;10.628;2023-02-01T15:20:57;14.98;;;4.78;;
8536;SDS011;4306;50.210;10.628;2023-02-01T15:23:25;12.98;;;2.75;;
8536;SDS011;4306;50.210;10.628;2023-02-01T15:25:53;7.88;;;2.65;;
8536;SDS011;4306;50.210;10.628;2023-02-01T15:28:21;6.23;;;1.70;;
8536;SDS011;4306;50.210;10.628;2023-02-01T15:30:52;6.45;;;1.85;;
8536;SDS011;4306;50.210;10.628;2023-02-01T15:33:23;8.75;;;2.33;;
8536;SDS011;4306;50.210;10.628;2023-02-01T15:35:51;9.13;;;1.92;;
8536;SDS011;4306;50.210;10.628;2023-02-01T15:38:31;10.93;;;2.50;;
8536;SDS011;4306;50.210;10.628;2023-02-01T15:41:03;8.35;;;2.13;;
8536;SDS011;4306;50.210;10.628;2023-02-01T15:43:33;7.63;;;1.98;;
8536;SDS011;4306;50.210;10.628;2023-02-01T15:46:03;9.82;;;2.17;;
8536;SDS011;4306;50.210;10.628;2023-02-01T15:48:35;5.70;;;2.00;;
8536;SDS011;4306;50.210;10.628;2023-02-01T15:51:05;6.78;;;1.85;;
8536;SDS011;4306;50.210;10.628;2023-02-01T15:53:37;9.32;;;2.58;;
8536;SDS011;4306;50.210;10.628;2023-02-01T15:56:05;6.45;;;2.15;;
8536;SDS011;4306;50.210;10.628;2023-02-01T15:58:32;8.80;;;2.67;;
8536;SDS011;4306;50.210;10.628;2023-02-01T16:01:00;10.80;;;3.92;;